sensor_id;sensor_type;location;lat;lon;timestamp;pressure;altitude;pressure_sealevel;temperature;humidity
75640;BME280;64233;51.486;6.332;2022-11-11T00:00:57;102584.78;;;6.88;97.16
75640;BME280;64233;51.486;6.332;2022-11-11T00:03:23;102583.13;;;6.87;97.20
75640;BME280;64233;51.486;6.332;2022-11-11T00:05:48;102590.63;;;6.92;96.94
75640;BME280;64233;51.486;6.332;2022-11-11T00:08:16;102582.06;;;6.97;96.95
75640;BME280;64233;51.486;6.332;2022-11-11T00:10:41;102581.94;;;6.90;97.15
75640;BME280;64233;51.486;6.332;2022-11-11T00:13:06;102585.53;;;6.97;96.87
75640;BME280;64233;51.486;6.332;2022-11-11T00:15:36;102586.56;;;6.96;97.00
75640;BME280;64233;51.486;6.332;2022-11-11T00:18:03;102586.09;;;6.93;96.80
75640;BME280;64233;51.486;6.332;2022-11-11T00:20:47;102573.28;;;6.88;96.82
75640;BME280;64233;51.486;6.332;2022-11-11T00:23:31;102568.13;;;6.86;97.06
75640;BME280;64233;51.486;6.332;2022-11-11T00:26:15;102576.03;;;6.80;97.28
75640;BME280;64233;51.486;6.332;2022-11-11T00:28:40;102585.22;;;6.62;97.49
75640;BME280;64233;51.486;6.332;2022-11-11T00:31:09;102591.97;;;6.50;97.78
75640;BME280;64233;51.486;6.332;2022-11-11T00:33:34;102593.94;;;6.33;97.90
75640;BME280;64233;51.486;6.332;2022-11-11T00:36:00;102599.13;;;6.26;98.43
75640;BME280;64233;51.486;6.332;2022-11-11T00:38:26;102597.25;;;6.35;98.79
75640;BME280;64233;51.486;6.332;2022-11-11T00:41:15;102595.47;;;6.50;98.25
75640;BME280;64233;51.486;6.332;2022-11-11T00:43:42;102598.63;;;6.54;97.92
75640;BME280;64233;51.486;6.332;2022-11-11T00:46:07;102604.94;;;6.53;98.20
75640;BME280;64233;51.486;6.332;2022-11-11T00:48:52;102601.66;;;6.51;98.08
75640;BME280;64233;51.486;6.332;2022-11-11T00:51:40;102609.91;;;6.56;97.97
75640;BME280;64233;51.486;6.332;2022-11-11T00:54:06;102610.78;;;6.57;98.27
75640;BME280;64233;51.486;6.332;2022-11-11T00:56:31;102608.56;;;6.60;97.62
75640;BME280;64233;51.486;6.332;2022-11-11T00:58:57;102596.88;;;6.61;97.68
75640;BME280;64233;51.486;6.332;2022-11-11T01:01:23;102606.06;;;6.59;97.67
75640;BME280;64233;51.486;6.332;2022-11-11T01:03:48;102607.69;;;6.68;97.82
75640;BME280;64233;51.486;6.332;2022-11-11T01:06:13;102607.88;;;6.66;97.49
75640;BME280;64233;51.486;6.332;2022-11-11T01:08:39;102605.72;;;6.62;97.88
75640;BME280;64233;51.486;6.332;2022-11-11T01:11:15;102613.91;;;6.60;98.04
75640;BME280;64233;51.486;6.332;2022-11-11T01:13:42;102616.94;;;6.57;98.22
75640;BME280;64233;51.486;6.332;2022-11-11T01:16:11;102616.63;;;6.52;98.00
75640;BME280;64233;51.486;6.332;2022-11-11T01:18:37;102612.41;;;6.58;98.24
75640;BME280;64233;51.486;6.332;2022-11-11T01:21:11;102613.94;;;6.52;98.03
75640;BME280;64233;51.486;6.332;2022-11-11T01:23:38;102617.75;;;6.58;98.12
75640;BME280;64233;51.486;6.332;2022-11-11T01:26:08;102613.91;;;6.60;98.16
75640;BME280;64233;51.486;6.332;2022-11-11T01:28:35;102617.13;;;6.55;98.35
75640;BME280;64233;51.486;6.332;2022-11-11T01:31:02;102627.91;;;6.62;98.76
75640;BME280;64233;51.486;6.332;2022-11-11T01:33:28;102628.41;;;6.58;98.67
75640;BME280;64233;51.486;6.332;2022-11-11T01:35:53;102623.75;;;6.60;98.98
75640;BME280;64233;51.486;6.332;2022-11-11T01:38:18;102627.19;;;6.68;98.94
75640;BME280;64233;51.486;6.332;2022-11-11T01:40:46;102628.38;;;6.66;98.72
75640;BME280;64233;51.486;6.332;2022-11-11T01:48:16;102631.22;;;6.64;98.79
75640;BME280;64233;51.486;6.332;2022-11-11T01:51:04;102622.56;;;6.62;99.12
75640;BME280;64233;51.486;6.332;2022-11-11T01:53:30;102623.09;;;6.58;99.33
75640;BME280;64233;51.486;6.332;2022-11-11T01:55:58;102616.75;;;6.59;99.22
75640;BME280;64233;51.486;6.332;2022-11-11T01:58:25;102611.34;;;6.67;99.53
75640;BME280;64233;51.486;6.332;2022-11-11T02:00:50;102605.06;;;6.60;99.33
75640;BME280;64233;51.486;6.332;2022-11-11T02:03:16;102606.84;;;6.67;99.21
75640;BME280;64233;51.486;6.332;2022-11-11T02:05:44;102613.47;;;6.71;99.52
75640;BME280;64233;51.486;6.332;2022-11-11T02:11:09;102614.38;;;6.64;99.75
75640;BME280;64233;51.486;6.332;2022-11-11T02:13:41;102621.34;;;6.65;99.26
75640;BME280;64233;51.486;6.332;2022-11-11T02:16:25;102628.13;;;6.76;99.30
75640;BME280;64233;51.486;6.332;2022-11-11T02:18:51;102624.25;;;6.78;99.42
75640;BME280;64233;51.486;6.332;2022-11-11T02:21:24;102630.41;;;6.79;99.31
75640;BME280;64233;51.486;6.332;2022-11-11T02:24:11;102631.03;;;6.66;99.94
75640;BME280;64233;51.486;6.332;2022-11-11T02:26:47;102631.75;;;6.60;99.91
75640;BME280;64233;51.486;6.332;2022-11-11T02:29:16;102625.25;;;6.62;99.72
75640;BME280;64233;51.486;6.332;2022-11-11T02:31:42;102628.84;;;6.69;99.52
75640;BME280;64233;51.486;6.332;2022-11-11T02:34:07;102619.09;;;6.77;99.43
75640;BME280;64233;51.486;6.332;2022-11-11T02:36:33;102624.91;;;6.80;99.11
75640;BME280;64233;51.486;6.332;2022-11-11T02:38:59;102619.38;;;6.82;99.21
75640;BME280;64233;51.486;6.332;2022-11-11T02:41:24;102620.00;;;6.69;99.45
75640;BME280;64233;51.486;6.332;2022-11-11T02:44:08;102617.13;;;6.70;99.47
75640;BME280;64233;51.486;6.332;2022-11-11T02:46:34;102611.47;;;6.74;99.25
75640;BME280;64233;51.486;6.332;2022-11-11T02:48:59;102601.31;;;6.69;99.66
75640;BME280;64233;51.486;6.332;2022-11-11T02:51:24;102596.25;;;6.59;99.76
75640;BME280;64233;51.486;6.332;2022-11-11T02:53:49;102597.31;;;6.50;100.00
75640;BME280;64233;51.486;6.332;2022-11-11T02:56:15;102596.41;;;6.58;99.80
75640;BME280;64233;51.486;6.332;2022-11-11T02:59:00;102597.06;;;6.60;99.92
75640;BME280;64233;51.486;6.332;2022-11-11T03:01:25;102590.25;;;6.57;99.56
75640;BME280;64233;51.486;6.332;2022-11-11T03:03:50;102592.78;;;6.50;100.00
75640;BME280;64233;51.486;6.332;2022-11-11T03:06:16;102588.41;;;6.34;100.00
75640;BME280;64233;51.486;6.332;2022-11-11T03:08:41;102584.56;;;6.37;100.00
75640;BME280;64233;51.486;6.332;2022-11-11T03:11:06;102586.94;;;6.32;100.00
75640;BME280;64233;51.486;6.332;2022-11-11T03:13:32;102585.28;;;6.31;100.00
75640;BME280;64233;51.486;6.332;2022-11-11T03:15:57;102585.97;;;6.25;100.00
75640;BME280;64233;51.486;6.332;2022-11-11T03:18:22;102581.97;;;6.29;100.00
75640;BME280;64233;51.486;6.332;2022-11-11T03:20:50;102584.31;;;6.24;100.00
75640;BME280;64233;51.486;6.332;2022-11-11T03:23:30;102577.03;;;6.17;100.00
75640;BME280;64233;51.486;6.332;2022-11-11T03:25:55;102582.19;;;6.19;100.00
75640;BME280;64233;51.486;6.332;2022-11-11T03:28:21;102591.72;;;6.13;100.00
75640;BME280;64233;51.486;6.332;2022-11-11T03:30:49;102589.59;;;6.09;100.00
75640;BME280;64233;51.486;6.332;2022-11-11T03:33:16;102600.81;;;6.04;100.00
75640;BME280;64233;51.486;6.332;2022-11-11T03:35:42;102604.28;;;6.05;100.00
75640;BME280;64233;51.486;6.332;2022-11-11T03:38:10;102606.13;;;5.96;100.00
75640;BME280;64233;51.486;6.332;2022-11-11T03:40:53;102615.50;;;5.92;100.00
75640;BME280;64233;51.486;6.332;2022-11-11T03:43:22;102613.84;;;5.82;100.00
75640;BME280;64233;51.486;6.332;2022-11-11T03:45:48;102615.38;;;5.77;100.00
75640;BME280;64233;51.486;6.332;2022-11-11T03:48:13;102612.88;;;5.75;100.00
75640;BME280;64233;51.486;6.332;2022-11-11T03:50:39;102617.41;;;5.75;100.00
75640;BME280;64233;51.486;6.332;2022-11-11T03:53:04;102614.28;;;5.63;100.00
75640;BME280;64233;51.486;6.332;2022-11-11T03:55:30;102618.13;;;5.60;100.00
75640;BME280;64233;51.486;6.332;2022-11-11T03:57:56;102624.97;;;5.55;100.00
75640;BME280;64233;51.486;6.332;2022-11-11T04:00:26;102628.97;;;5.50;100.00
75640;BME280;64233;51.486;6.332;2022-11-11T04:03:00;102630.31;;;5.46;100.00
75640;BME280;64233;51.486;6.332;2022-11-11T04:05:44;102626.00;;;5.37;100.00
75640;BME280;64233;51.486;6.332;2022-11-11T04:08:28;102626.53;;;5.32;100.00
75640;BME280;64233;51.486;6.332;2022-11-11T04:11:29;102622.00;;;5.41;100.00
75640;BME280;64233;51.486;6.332;2022-11-11T04:14:00;102620.31;;;5.48;100.00
75640;BME280;64233;51.486;6.332;2022-11-11T04:16:45;102624.81;;;5.48;100.00
75640;BME280;64233;51.486;6.332;2022-11-11T04:19:11;102630.34;;;5.38;100.00
75640;BME280;64233;51.486;6.332;2022-11-11T04:21:55;102636.19;;;5.25;100.00
75640;BME280;64233;51.486;6.332;2022-11-11T04:24:20;102632.72;;;5.08;100.00
75640;BME280;64233;51.486;6.332;2022-11-11T04:27:09;102625.78;;;4.99;100.00
75640;BME280;64233;51.486;6.332;2022-11-11T04:29:36;102622.78;;;5.02;100.00
75640;BME280;64233;51.486;6.332;2022-11-11T04:32:09;102619.13;;;4.87;100.00
75640;BME280;64233;51.486;6.332;2022-11-11T04:34:58;102615.81;;;4.68;100.00
75640;BME280;64233;51.486;6.332;2022-11-11T04:37:26;102617.78;;;4.58;100.00
75640;BME280;64233;51.486;6.332;2022-11-11T04:39:53;102607.16;;;4.50;100.00
75640;BME280;64233;51.486;6.332;2022-11-11T04:42:37;102609.31;;;4.71;100.00
75640;BME280;64233;51.486;6.332;2022-11-11T04:45:06;102609.16;;;4.64;100.00
75640;BME280;64233;51.486;6.332;2022-11-11T04:48:01;102604.97;;;4.61;100.00
75640;BME280;64233;51.486;6.332;2022-11-11T04:50:29;102601.13;;;4.89;100.00
75640;BME280;64233;51.486;6.332;2022-11-11T04:52:55;102597.31;;;4.99;100.00
75640;BME280;64233;51.486;6.332;2022-11-11T04:55:21;102591.63;;;5.11;100.00
75640;BME280;64233;51.486;6.332;2022-11-11T04:58:05;102596.09;;;5.18;100.00
75640;BME280;64233;51.486;6.332;2022-11-11T05:00:30;102604.09;;;5.18;100.00
75640;BME280;64233;51.486;6.332;2022-11-11T05:02:56;102599.97;;;5.16;100.00
75640;BME280;64233;51.486;6.332;2022-11-11T05:05:54;102600.44;;;5.20;100.00
75640;BME280;64233;51.486;6.332;2022-11-11T05:08:40;102605.75;;;5.28;100.00
75640;BME280;64233;51.486;6.332;2022-11-11T05:11:28;102605.91;;;5.26;100.00
75640;BME280;64233;51.486;6.332;2022-11-11T05:13:56;102609.41;;;5.27;100.00
75640;BME280;64233;51.486;6.332;2022-11-11T05:16:43;102606.75;;;5.18;100.00
75640;BME280;64233;51.486;6.332;2022-11-11T05:19:27;102606.91;;;5.25;100.00
75640;BME280;64233;51.486;6.332;2022-11-11T05:22:29;102607.25;;;5.30;100.00
75640;BME280;64233;51.486;6.332;2022-11-11T05:24:55;102610.19;;;5.35;100.00
75640;BME280;64233;51.486;6.332;2022-11-11T05:27:40;102613.72;;;5.28;100.00
75640;BME280;64233;51.486;6.332;2022-11-11T05:30:08;102611.06;;;5.28;100.00
75640;BME280;64233;51.486;6.332;2022-11-11T05:32:35;102611.72;;;5.30;100.00
75640;BME280;64233;51.486;6.332;2022-11-11T05:35:01;102620.22;;;5.25;100.00
75640;BME280;64233;51.486;6.332;2022-11-11T05:37:26;102613.06;;;5.26;100.00
75640;BME280;64233;51.486;6.332;2022-11-11T05:39:53;102616.22;;;5.21;100.00
75640;BME280;64233;51.486;6.332;2022-11-11T05:42:19;102615.75;;;5.17;100.00
75640;BME280;64233;51.486;6.332;2022-11-11T05:44:44;102616.56;;;5.18;100.00
75640;BME280;64233;51.486;6.332;2022-11-11T05:47:10;102615.94;;;5.16;100.00
75640;BME280;64233;51.486;6.332;2022-11-11T05:49:35;102606.97;;;5.00;100.00
75640;BME280;64233;51.486;6.332;2022-11-11T05:52:01;102616.75;;;5.00;100.00
75640;BME280;64233;51.486;6.332;2022-11-11T05:54:26;102625.25;;;5.04;100.00
75640;BME280;64233;51.486;6.332;2022-11-11T05:56:52;102621.09;;;5.01;100.00
75640;BME280;64233;51.486;6.332;2022-11-11T05:59:18;102626.75;;;4.98;100.00
75640;BME280;64233;51.486;6.332;2022-11-11T06:01:43;102625.44;;;4.94;100.00
75640;BME280;64233;51.486;6.332;2022-11-11T06:04:09;102632.44;;;4.95;100.00
75640;BME280;64233;51.486;6.332;2022-11-11T06:06:34;102641.41;;;4.94;100.00
75640;BME280;64233;51.486;6.332;2022-11-11T06:09:00;102651.69;;;4.89;100.00
75640;BME280;64233;51.486;6.332;2022-11-11T06:11:26;102647.22;;;4.64;100.00
75640;BME280;64233;51.486;6.332;2022-11-11T06:13:55;102651.69;;;4.47;100.00
75640;BME280;64233;51.486;6.332;2022-11-11T06:16:20;102653.84;;;4.36;100.00
75640;BME280;64233;51.486;6.332;2022-11-11T06:18:46;102659.66;;;4.31;100.00
75640;BME280;64233;51.486;6.332;2022-11-11T06:21:12;102662.78;;;4.26;100.00
75640;BME280;64233;51.486;6.332;2022-11-11T06:23:37;102662.25;;;4.14;100.00
75640;BME280;64233;51.486;6.332;2022-11-11T06:26:03;102661.56;;;4.12;100.00
75640;BME280;64233;51.486;6.332;2022-11-11T06:31:17;102673.38;;;4.18;100.00
75640;BME280;64233;51.486;6.332;2022-11-11T06:33:43;102676.38;;;4.23;100.00
75640;BME280;64233;51.486;6.332;2022-11-11T06:36:12;102681.38;;;4.26;100.00
75640;BME280;64233;51.486;6.332;2022-11-11T06:38:41;102674.22;;;4.19;100.00
75640;BME280;64233;51.486;6.332;2022-11-11T06:41:07;102686.81;;;4.17;100.00
75640;BME280;64233;51.486;6.332;2022-11-11T06:43:42;102684.66;;;4.12;100.00
75640;BME280;64233;51.486;6.332;2022-11-11T06:46:19;102686.38;;;4.21;100.00
75640;BME280;64233;51.486;6.332;2022-11-11T06:48:46;102694.03;;;4.33;100.00
75640;BME280;64233;51.486;6.332;2022-11-11T06:51:11;102694.88;;;4.41;100.00
75640;BME280;64233;51.486;6.332;2022-11-11T06:53:37;102701.22;;;4.48;100.00
75640;BME280;64233;51.486;6.332;2022-11-11T06:56:03;102706.22;;;4.52;100.00
75640;BME280;64233;51.486;6.332;2022-11-11T06:58:28;102704.22;;;4.54;100.00
75640;BME280;64233;51.486;6.332;2022-11-11T07:00:53;102700.56;;;4.55;100.00
75640;BME280;64233;51.486;6.332;2022-11-11T07:03:20;102700.56;;;4.55;100.00
75640;BME280;64233;51.486;6.332;2022-11-11T07:05:46;102700.88;;;4.52;100.00
75640;BME280;64233;51.486;6.332;2022-11-11T07:08:14;102698.91;;;4.45;100.00
75640;BME280;64233;51.486;6.332;2022-11-11T07:10:43;102696.06;;;4.47;100.00
75640;BME280;64233;51.486;6.332;2022-11-11T07:13:08;102697.56;;;4.50;100.00
75640;BME280;64233;51.486;6.332;2022-11-11T07:15:35;102700.56;;;4.55;100.00
75640;BME280;64233;51.486;6.332;2022-11-11T07:18:00;102691.44;;;4.57;100.00
75640;BME280;64233;51.486;6.332;2022-11-11T07:20:26;102700.56;;;4.63;100.00
75640;BME280;64233;51.486;6.332;2022-11-11T07:22:51;102700.25;;;4.66;100.00
75640;BME280;64233;51.486;6.332;2022-11-11T07:25:17;102692.44;;;4.73;100.00
75640;BME280;64233;51.486;6.332;2022-11-11T07:27:42;102698.78;;;4.80;100.00
75640;BME280;64233;51.486;6.332;2022-11-11T07:30:09;102703.59;;;4.85;100.00
75640;BME280;64233;51.486;6.332;2022-11-11T07:32:36;102707.94;;;4.86;100.00
75640;BME280;64233;51.486;6.332;2022-11-11T07:35:02;102703.94;;;4.90;100.00
75640;BME280;64233;51.486;6.332;2022-11-11T07:37:30;102703.44;;;5.03;100.00
75640;BME280;64233;51.486;6.332;2022-11-11T07:39:55;102705.09;;;5.04;100.00
75640;BME280;64233;51.486;6.332;2022-11-11T07:42:20;102711.78;;;5.08;100.00
75640;BME280;64233;51.486;6.332;2022-11-11T07:44:46;102703.28;;;5.12;100.00
75640;BME280;64233;51.486;6.332;2022-11-11T07:47:11;102700.59;;;5.12;100.00
75640;BME280;64233;51.486;6.332;2022-11-11T07:49:36;102700.09;;;5.17;100.00
75640;BME280;64233;51.486;6.332;2022-11-11T07:52:02;102700.44;;;5.22;100.00
75640;BME280;64233;51.486;6.332;2022-11-11T07:54:27;102691.28;;;5.25;100.00
75640;BME280;64233;51.486;6.332;2022-11-11T07:56:52;102703.28;;;5.29;99.91
75640;BME280;64233;51.486;6.332;2022-11-11T07:59:18;102707.22;;;5.33;99.63
75640;BME280;64233;51.486;6.332;2022-11-11T08:01:44;102701.44;;;5.38;99.57
75640;BME280;64233;51.486;6.332;2022-11-11T08:04:09;102699.91;;;5.43;99.38
75640;BME280;64233;51.486;6.332;2022-11-11T08:06:34;102705.56;;;5.48;98.81
75640;BME280;64233;51.486;6.332;2022-11-11T08:08:59;102711.22;;;5.54;99.45
75640;BME280;64233;51.486;6.332;2022-11-11T08:11:25;102716.53;;;5.62;98.51
75640;BME280;64233;51.486;6.332;2022-11-11T08:14:08;102717.50;;;5.77;97.35
75640;BME280;64233;51.486;6.332;2022-11-11T08:16:34;102728.78;;;5.88;97.20
75640;BME280;64233;51.486;6.332;2022-11-11T08:18:59;102726.78;;;5.98;96.56
75640;BME280;64233;51.486;6.332;2022-11-11T08:21:25;102728.44;;;5.99;96.69
75640;BME280;64233;51.486;6.332;2022-11-11T08:23:50;102729.25;;;5.99;97.10
75640;BME280;64233;51.486;6.332;2022-11-11T08:26:16;102732.09;;;6.06;97.31
75640;BME280;64233;51.486;6.332;2022-11-11T08:28:42;102735.06;;;6.11;96.84
75640;BME280;64233;51.486;6.332;2022-11-11T08:31:08;102728.03;;;6.18;96.74
75640;BME280;64233;51.486;6.332;2022-11-11T08:33:34;102726.88;;;6.21;96.13
75640;BME280;64233;51.486;6.332;2022-11-11T08:36:00;102728.00;;;6.27;96.03
75640;BME280;64233;51.486;6.332;2022-11-11T08:38:26;102721.59;;;6.36;95.21
75640;BME280;64233;51.486;6.332;2022-11-11T08:40:51;102730.47;;;6.36;95.79
75640;BME280;64233;51.486;6.332;2022-11-11T08:43:17;102731.94;;;6.39;95.86
75640;BME280;64233;51.486;6.332;2022-11-11T08:45:43;102739.06;;;6.47;95.20
75640;BME280;64233;51.486;6.332;2022-11-11T08:48:08;102735.50;;;6.54;95.20
75640;BME280;64233;51.486;6.332;2022-11-11T08:50:37;102738.13;;;6.63;95.01
75640;BME280;64233;51.486;6.332;2022-11-11T08:53:04;102737.59;;;6.67;95.14
75640;BME280;64233;51.486;6.332;2022-11-11T08:55:30;102739.22;;;6.77;95.08
75640;BME280;64233;51.486;6.332;2022-11-11T08:58:00;102748.38;;;6.82;94.38
75640;BME280;64233;51.486;6.332;2022-11-11T09:00:26;102756.19;;;6.84;95.13
75640;BME280;64233;51.486;6.332;2022-11-11T09:02:52;102755.66;;;6.88;95.04
75640;BME280;64233;51.486;6.332;2022-11-11T09:05:20;102759.44;;;6.94;94.94
75640;BME280;64233;51.486;6.332;2022-11-11T09:07:46;102766.91;;;6.99;95.00
75640;BME280;64233;51.486;6.332;2022-11-11T09:10:11;102758.56;;;7.02;94.64
75640;BME280;64233;51.486;6.332;2022-11-11T09:12:37;102758.84;;;7.07;94.14
75640;BME280;64233;51.486;6.332;2022-11-11T09:15:03;102762.47;;;7.14;94.13
75640;BME280;64233;51.486;6.332;2022-11-11T09:17:29;102756.88;;;7.24;93.61
75640;BME280;64233;51.486;6.332;2022-11-11T09:19:55;102765.03;;;7.31;93.92
75640;BME280;64233;51.486;6.332;2022-11-11T09:22:20;102766.31;;;7.35;93.56
75640;BME280;64233;51.486;6.332;2022-11-11T09:24:45;102771.59;;;7.43;93.36
75640;BME280;64233;51.486;6.332;2022-11-11T09:27:11;102768.38;;;7.48;93.66
75640;BME280;64233;51.486;6.332;2022-11-11T09:29:36;102781.66;;;7.56;92.66
75640;BME280;64233;51.486;6.332;2022-11-11T09:32:02;102783.41;;;7.64;93.02
75640;BME280;64233;51.486;6.332;2022-11-11T09:34:28;102779.19;;;7.69;93.50
75640;BME280;64233;51.486;6.332;2022-11-11T09:36:53;102782.78;;;7.76;93.70
75640;BME280;64233;51.486;6.332;2022-11-11T09:39:21;102788.91;;;7.85;93.01
75640;BME280;64233;51.486;6.332;2022-11-11T09:41:58;102788.97;;;7.92;94.00
75640;BME280;64233;51.486;6.332;2022-11-11T09:44:39;102791.56;;;8.00;93.45
75640;BME280;64233;51.486;6.332;2022-11-11T09:50:13;102794.06;;;8.17;93.01
75640;BME280;64233;51.486;6.332;2022-11-11T09:55:20;102794.91;;;8.32;92.23
75640;BME280;64233;51.486;6.332;2022-11-11T09:57:56;102793.75;;;8.41;92.35
75640;BME280;64233;51.486;6.332;2022-11-11T10:00:27;102800.44;;;8.46;91.25
75640;BME280;64233;51.486;6.332;2022-11-11T10:05:49;102804.75;;;8.61;91.76
75640;BME280;64233;51.486;6.332;2022-11-11T10:08:24;102794.50;;;8.65;91.43
75640;BME280;64233;51.486;6.332;2022-11-11T10:10:52;102786.72;;;8.70;90.96
75640;BME280;64233;51.486;6.332;2022-11-11T10:13:29;102786.16;;;8.75;91.10
75640;BME280;64233;51.486;6.332;2022-11-11T10:16:46;102790.94;;;8.79;91.29
75640;BME280;64233;51.486;6.332;2022-11-11T10:19:29;102790.38;;;8.84;91.24
75640;BME280;64233;51.486;6.332;2022-11-11T10:22:01;102798.94;;;8.94;91.59
75640;BME280;64233;51.486;6.332;2022-11-11T10:24:37;102794.22;;;8.96;90.57
75640;BME280;64233;51.486;6.332;2022-11-11T10:27:13;102791.22;;;9.06;90.31
75640;BME280;64233;51.486;6.332;2022-11-11T10:29:41;102797.94;;;9.17;89.98
75640;BME280;64233;51.486;6.332;2022-11-11T10:34:40;102794.50;;;9.52;88.52
75640;BME280;64233;51.486;6.332;2022-11-11T10:37:20;102802.50;;;9.73;87.62
75640;BME280;64233;51.486;6.332;2022-11-11T10:42:34;102806.81;;;10.03;85.17
75640;BME280;64233;51.486;6.332;2022-11-11T10:45:00;102806.88;;;10.16;87.03
75640;BME280;64233;51.486;6.332;2022-11-11T10:47:40;102803.81;;;10.19;86.87
75640;BME280;64233;51.486;6.332;2022-11-11T10:50:14;102803.63;;;10.27;87.83
75640;BME280;64233;51.486;6.332;2022-11-11T10:52:47;102799.03;;;10.49;84.92
75640;BME280;64233;51.486;6.332;2022-11-11T10:55:20;102802.81;;;10.62;84.25
75640;BME280;64233;51.486;6.332;2022-11-11T10:58:10;102803.88;;;10.81;83.75
75640;BME280;64233;51.486;6.332;2022-11-11T11:00:38;102799.13;;;10.83;84.03
75640;BME280;64233;51.486;6.332;2022-11-11T11:03:24;102799.13;;;10.90;86.16
75640;BME280;64233;51.486;6.332;2022-11-11T11:06:09;102797.69;;;10.80;86.21
75640;BME280;64233;51.486;6.332;2022-11-11T11:08:46;102796.25;;;10.84;84.98
75640;BME280;64233;51.486;6.332;2022-11-11T11:11:20;102794.59;;;10.83;85.00
75640;BME280;64233;51.486;6.332;2022-11-11T11:13:52;102793.38;;;10.86;85.54
75640;BME280;64233;51.486;6.332;2022-11-11T11:16:23;102793.56;;;10.91;83.34
75640;BME280;64233;51.486;6.332;2022-11-11T11:21:55;102793.59;;;10.98;84.98
75640;BME280;64233;51.486;6.332;2022-11-11T11:24:24;102795.84;;;10.94;84.44
75640;BME280;64233;51.486;6.332;2022-11-11T11:26:56;102792.34;;;11.14;83.50
75640;BME280;64233;51.486;6.332;2022-11-11T11:32:11;102797.75;;;11.20;85.73
75640;BME280;64233;51.486;6.332;2022-11-11T11:34:43;102789.91;;;11.26;83.26
75640;BME280;64233;51.486;6.332;2022-11-11T11:37:09;102783.91;;;11.30;83.35
75640;BME280;64233;51.486;6.332;2022-11-11T11:39:37;102784.94;;;11.43;83.00
75640;BME280;64233;51.486;6.332;2022-11-11T11:42:03;102788.84;;;11.53;82.81
75640;BME280;64233;51.486;6.332;2022-11-11T11:44:30;102783.25;;;11.75;82.99
75640;BME280;64233;51.486;6.332;2022-11-11T11:56:35;102779.28;;;12.04;81.48
75640;BME280;64233;51.486;6.332;2022-11-11T11:59:10;102771.34;;;12.23;80.77
75640;BME280;64233;51.486;6.332;2022-11-11T12:04:33;102768.94;;;12.01;78.65
75640;BME280;64233;51.486;6.332;2022-11-11T12:07:22;102762.75;;;11.94;77.73
75640;BME280;64233;51.486;6.332;2022-11-11T12:15:40;102759.44;;;11.85;78.30
75640;BME280;64233;51.486;6.332;2022-11-11T12:20:44;102760.25;;;11.86;78.30
75640;BME280;64233;51.486;6.332;2022-11-11T12:23:30;102751.75;;;11.89;78.48
75640;BME280;64233;51.486;6.332;2022-11-11T12:26:36;102735.59;;;12.02;78.01
75640;BME280;64233;51.486;6.332;2022-11-11T12:29:22;102738.69;;;12.06;80.18
75640;BME280;64233;51.486;6.332;2022-11-11T12:32:25;102731.25;;;12.08;79.10
75640;BME280;64233;51.486;6.332;2022-11-11T12:35:13;102728.31;;;12.16;78.42
75640;BME280;64233;51.486;6.332;2022-11-11T12:43:17;102723.72;;;12.23;78.65
75640;BME280;64233;51.486;6.332;2022-11-11T12:45:48;102722.88;;;12.23;78.22
75640;BME280;64233;51.486;6.332;2022-11-11T12:51:32;102725.75;;;12.35;78.04
75640;BME280;64233;51.486;6.332;2022-11-11T13:00:00;102723.53;;;12.57;77.99
75640;BME280;64233;51.486;6.332;2022-11-11T13:08:38;102713.97;;;12.61;76.76
75640;BME280;64233;51.486;6.332;2022-11-11T13:11:15;102718.69;;;12.66;75.27
75640;BME280;64233;51.486;6.332;2022-11-11T13:16:32;102715.19;;;12.65;74.88
75640;BME280;64233;51.486;6.332;2022-11-11T13:19:24;102704.75;;;12.44;76.76
75640;BME280;64233;51.486;6.332;2022-11-11T13:22:10;102718.81;;;12.46;76.32
75640;BME280;64233;51.486;6.332;2022-11-11T13:24:36;102708.06;;;12.46;76.47
75640;BME280;64233;51.486;6.332;2022-11-11T13:27:10;102712.63;;;12.45;75.68
75640;BME280;64233;51.486;6.332;2022-11-11T13:32:28;102715.50;;;12.50;76.47
75640;BME280;64233;51.486;6.332;2022-11-11T13:34:55;102712.31;;;12.60;75.96
75640;BME280;64233;51.486;6.332;2022-11-11T13:37:26;102722.69;;;12.63;75.59
75640;BME280;64233;51.486;6.332;2022-11-11T13:40:02;102719.13;;;12.63;76.81
75640;BME280;64233;51.486;6.332;2022-11-11T13:42:37;102720.53;;;12.72;74.68
75640;BME280;64233;51.486;6.332;2022-11-11T13:45:05;102721.78;;;12.69;77.14
75640;BME280;64233;51.486;6.332;2022-11-11T13:47:35;102727.59;;;12.73;76.42
75640;BME280;64233;51.486;6.332;2022-11-11T13:50:07;102728.19;;;12.75;76.50
75640;BME280;64233;51.486;6.332;2022-11-11T13:53:27;102726.25;;;12.82;75.52
75640;BME280;64233;51.486;6.332;2022-11-11T13:55:41;102720.88;;;12.82;76.05
75640;BME280;64233;51.486;6.332;2022-11-11T13:58:21;102721.66;;;12.89;76.53
75640;BME280;64233;51.486;6.332;2022-11-11T14:00:58;102709.84;;;12.90;75.92
75640;BME280;64233;51.486;6.332;2022-11-11T14:13:48;102723.09;;;13.17;74.53
75640;BME280;64233;51.486;6.332;2022-11-11T14:21:46;102716.31;;;13.08;74.04
75640;BME280;64233;51.486;6.332;2022-11-11T14:24:25;102724.81;;;13.12;74.11
75640;BME280;64233;51.486;6.332;2022-11-11T14:27:19;102723.97;;;13.11;73.48
75640;BME280;64233;51.486;6.332;2022-11-11T14:29:48;102727.28;;;13.13;73.94
75640;BME280;64233;51.486;6.332;2022-11-11T14:37:46;102728.06;;;12.88;75.64
75640;BME280;64233;51.486;6.332;2022-11-11T14:40:25;102725.81;;;12.85;75.47
75640;BME280;64233;51.486;6.332;2022-11-11T14:42:51;102718.38;;;12.87;75.95
75640;BME280;64233;51.486;6.332;2022-11-11T14:47:49;102734.16;;;12.77;76.30
75640;BME280;64233;51.486;6.332;2022-11-11T14:52:58;102730.13;;;12.61;77.24
75640;BME280;64233;51.486;6.332;2022-11-11T14:55:31;102727.13;;;12.44;78.89
75640;BME280;64233;51.486;6.332;2022-11-11T15:03:31;102736.69;;;11.68;86.15